Time;durP1;ratioP1;P1;durP2;ratioP2;P2;SDS_P1;SDS_P2;PMS_P1;PMS_P2;Temp;Humidity;BMP_temperature;BMP_pressure;BME280_temperature;BME280_humidity;BME280_pressure;Samples;Min_cycle;Max_cycle;Signal;HPM_P1;HPM_P2
2022/08/11 00:01:22;;;;;;;2.47;2.37;;;;;;;;;;4882492;29;20185;-75
2022/08/11 00:03:54;;;;;;;2.53;2.03;;;;;;;;;;4901800;29;20268;-76
2022/08/11 00:06:25;;;;;;;3.10;2.87;;;;;;;;;;4895916;29;20220;-75
2022/08/11 00:08:51;;;;;;;2.43;2.23;;;;;;;;;;4885229;29;20295;-75
2022/08/11 00:11:17;;;;;;;2.47;2.27;;;;;;;;;;4872952;29;20417;-74
2022/08/11 00:13:44;;;;;;;3.83;2.30;;;;;;;;;;4882855;29;20239;-75
2022/08/11 00:16:20;;;;;;;2.83;2.57;;;;;;;;;;4870061;29;20276;-76
2022/08/11 00:18:51;;;;;;;2.50;2.30;;;;;;;;;;4878355;29;20398;-76
2022/08/11 00:21:16;;;;;;;3.60;2.50;;;;;;;;;;4876215;29;20182;-76
2022/08/11 00:23:50;;;;;;;3.13;2.23;;;;;;;;;;4868520;29;20209;-76
2022/08/11 00:26:16;;;;;;;3.00;2.20;;;;;;;;;;4875197;29;20194;-75
2022/08/11 00:28:42;;;;;;;3.67;2.37;;;;;;;;;;4876040;29;20229;-76
2022/08/11 00:31:08;;;;;;;3.73;2.50;;;;;;;;;;4887007;29;20186;-76
2022/08/11 00:33:38;;;;;;;2.30;2.10;;;;;;;;;;4899004;29;20274;-76
2022/08/11 00:36:05;;;;;;;2.63;2.40;;;;;;;;;;4897140;29;20173;-75
2022/08/11 00:38:33;;;;;;;3.07;2.77;;;;;;;;;;4885351;29;20182;-75
2022/08/11 00:41:03;;;;;;;2.63;2.43;;;;;;;;;;4885539;29;20189;-76
2022/08/11 00:43:43;;;;;;;2.53;2.33;;;;;;;;;;4885571;29;20240;-76
2022/08/11 00:46:21;;;;;;;2.63;2.40;;;;;;;;;;4884208;29;20387;-75
2022/08/11 00:48:56;;;;;;;2.33;2.13;;;;;;;;;;4888584;29;20252;-74
2022/08/11 00:51:39;;;;;;;2.63;2.13;;;;;;;;;;4898044;29;20190;-75
2022/08/11 00:54:23;;;;;;;2.37;2.17;;;;;;;;;;4885930;29;20242;-76
2022/08/11 00:56:55;;;;;;;4.67;2.90;;;;;;;;;;4885711;29;20460;-74
2022/08/11 00:59:20;;;;;;;4.17;2.40;;;;;;;;;;4881570;29;20189;-76
2022/08/11 01:01:51;;;;;;;3.17;2.37;;;;;;;;;;4889378;29;20192;-76
2022/08/11 01:04:43;;;;;;;4.80;3.27;;;;;;;;;;4893218;29;20188;-76
2022/08/11 01:07:27;;;;;;;2.60;2.30;;;;;;;;;;4887870;29;20185;-76
2022/08/11 01:09:52;;;;;;;2.20;2.10;;;;;;;;;;4890968;29;20204;-76
2022/08/11 01:12:36;;;;;;;4.63;3.00;;;;;;;;;;4893935;29;20223;-76
2022/08/11 01:15:20;;;;;;;2.43;2.23;;;;;;;;;;4883402;29;20212;-76
2022/08/11 01:17:45;;;;;;;5.30;2.77;;;;;;;;;;4890404;29;20208;-76
2022/08/11 01:20:20;;;;;;;3.07;2.33;;;;;;;;;;4882749;29;20185;-76
2022/08/11 01:23:03;;;;;;;2.87;2.53;;;;;;;;;;4879041;29;20263;-75
2022/08/11 01:25:44;;;;;;;2.30;2.20;;;;;;;;;;4883135;29;20192;-77
2022/08/11 01:28:10;;;;;;;2.60;2.40;;;;;;;;;;4898733;29;20224;-76
2022/08/11 01:31:00;;;;;;;2.30;2.10;;;;;;;;;;4905652;29;20223;-76
2022/08/11 01:33:37;;;;;;;4.77;2.80;;;;;;;;;;4891087;29;20184;-76
2022/08/11 01:36:21;;;;;;;2.57;2.33;;;;;;;;;;4900948;29;20179;-74
2022/08/11 01:39:01;;;;;;;3.53;2.57;;;;;;;;;;4886067;29;20184;-73
2022/08/11 01:44:39;;;;;;;4.73;2.63;;;;;;;;;;4910897;29;20202;-73
2022/08/11 01:50:19;;;;;;;2.93;2.50;;;;;;;;;;4911422;29;20211;-74
2022/08/11 01:52:44;;;;;;;2.67;2.47;;;;;;;;;;4886987;29;20251;-74
2022/08/11 01:55:30;;;;;;;5.30;2.30;;;;;;;;;;4904644;29;20198;-74
2022/08/11 01:58:05;;;;;;;2.90;2.53;;;;;;;;;;4888058;29;20202;-74
2022/08/11 02:00:34;;;;;;;2.60;2.40;;;;;;;;;;4911321;29;20193;-74
2022/08/11 02:03:03;;;;;;;3.13;2.30;;;;;;;;;;4893051;29;20248;-74
2022/08/11 02:05:47;;;;;;;2.60;2.37;;;;;;;;;;4908457;29;20306;-74
2022/08/11 02:08:21;;;;;;;3.87;2.67;;;;;;;;;;4900349;29;20191;-74
2022/08/11 02:14:03;;;;;;;3.80;2.23;;;;;;;;;;4905595;29;20329;-74
2022/08/11 02:16:29;;;;;;;3.40;2.63;;;;;;;;;;4886863;29;20179;-74
2022/08/11 02:24:43;;;;;;;2.83;2.60;;;;;;;;;;4907429;29;20221;-74
2022/08/11 02:27:15;;;;;;;3.60;2.40;;;;;;;;;;4905584;29;20340;-75
2022/08/11 02:29:51;;;;;;;8.53;2.60;;;;;;;;;;4891981;29;20508;-73
2022/08/11 02:35:03;;;;;;;2.80;2.30;;;;;;;;;;4904007;29;20284;-74
2022/08/11 02:37:31;;;;;;;4.43;2.60;;;;;;;;;;4887669;29;20191;-74
2022/08/11 02:39:57;;;;;;;3.50;2.40;;;;;;;;;;4887946;29;20186;-74
2022/08/11 02:42:26;;;;;;;2.57;2.37;;;;;;;;;;4887506;29;20192;-73
2022/08/11 02:45:04;;;;;;;3.10;2.90;;;;;;;;;;4890285;29;20436;-73
2022/08/11 02:47:29;;;;;;;2.70;2.50;;;;;;;;;;4908127;29;20255;-74
2022/08/11 02:50:02;;;;;;;2.50;2.30;;;;;;;;;;4890914;29;20265;-73
2022/08/11 02:52:59;;;;;;;3.23;2.70;;;;;;;;;;4902201;29;20197;-73
2022/08/11 02:55:34;;;;;;;4.00;2.70;;;;;;;;;;4874649;29;20240;-74
2022/08/11 02:58:18;;;;;;;2.47;2.23;;;;;;;;;;4893253;29;20184;-74
2022/08/11 03:00:56;;;;;;;2.63;2.43;;;;;;;;;;4888418;29;20218;-73
2022/08/11 03:03:38;;;;;;;2.63;2.43;;;;;;;;;;4906123;29;20189;-73
2022/08/11 03:06:23;;;;;;;2.77;2.57;;;;;;;;;;4902374;29;20189;-74
2022/08/11 03:08:53;;;;;;;4.87;2.70;;;;;;;;;;4917976;29;20224;-73
2022/08/11 03:17:02;;;;;;;2.80;2.60;;;;;;;;;;4903380;29;20227;-74
2022/08/11 03:19:33;;;;;;;3.10;2.80;;;;;;;;;;4913003;29;20177;-73
2022/08/11 03:21:58;;;;;;;2.80;2.60;;;;;;;;;;4889961;29;20273;-74
2022/08/11 03:24:44;;;;;;;2.87;2.53;;;;;;;;;;4884082;29;20569;-74
2022/08/11 03:27:25;;;;;;;5.03;3.07;;;;;;;;;;4891100;29;20201;-75
2022/08/11 03:29:50;;;;;;;3.80;3.10;;;;;;;;;;4898012;29;20205;-74
2022/08/11 03:32:24;;;;;;;3.27;2.30;;;;;;;;;;4888660;29;20190;-74
2022/08/11 03:34:51;;;;;;;3.43;2.47;;;;;;;;;;4887015;29;20228;-74
2022/08/11 03:37:49;;;;;;;2.60;2.40;;;;;;;;;;4888723;29;20185;-73
2022/08/11 03:40:14;;;;;;;3.97;2.80;;;;;;;;;;4903585;29;20192;-74
2022/08/11 03:43:06;;;;;;;3.17;2.97;;;;;;;;;;4887892;29;20174;-73
2022/08/11 03:45:34;;;;;;;3.17;2.50;;;;;;;;;;4869542;29;20226;-74
2022/08/11 03:48:20;;;;;;;2.87;2.67;;;;;;;;;;4888713;29;20194;-74
2022/08/11 03:50:57;;;;;;;5.00;3.07;;;;;;;;;;4897398;29;20193;-74
2022/08/11 03:53:42;;;;;;;2.93;2.57;;;;;;;;;;4887208;29;20273;-73
2022/08/11 03:56:38;;;;;;;3.70;2.70;;;;;;;;;;4903517;29;20186;-74
2022/08/11 03:59:03;;;;;;;3.10;2.80;;;;;;;;;;4904154;29;20185;-73
2022/08/11 04:01:44;;;;;;;3.07;2.77;;;;;;;;;;4905312;29;20228;-75
2022/08/11 04:04:28;;;;;;;3.30;2.90;;;;;;;;;;4887613;29;20219;-73
2022/08/11 04:07:23;;;;;;;2.97;2.77;;;;;;;;;;4905804;29;20185;-73
2022/08/11 04:10:26;;;;;;;4.50;2.53;;;;;;;;;;4831838;29;20224;-75
2022/08/11 04:13:10;;;;;;;4.57;2.57;;;;;;;;;;4811382;29;20195;-74
2022/08/11 04:16:01;;;;;;;2.77;2.57;;;;;;;;;;4818188;29;20219;-73
2022/08/11 04:18:33;;;;;;;2.83;2.60;;;;;;;;;;4882455;29;20197;-75
2022/08/11 04:20:59;;;;;;;4.17;2.87;;;;;;;;;;4887184;29;20182;-73
2022/08/11 04:23:43;;;;;;;2.97;2.60;;;;;;;;;;4895401;29;20416;-73
2022/08/11 04:26:28;;;;;;;3.20;2.90;;;;;;;;;;4885519;29;20213;-74
2022/08/11 04:28:53;;;;;;;3.33;3.07;;;;;;;;;;4891082;29;20232;-74
2022/08/11 04:31:37;;;;;;;5.83;2.87;;;;;;;;;;4889709;29;20181;-75
2022/08/11 04:34:30;;;;;;;4.43;3.50;;;;;;;;;;4882460;29;20336;-74
2022/08/11 04:37:33;;;;;;;4.10;2.77;;;;;;;;;;4894080;29;20192;-74
2022/08/11 04:39:58;;;;;;;3.00;2.80;;;;;;;;;;4899427;29;20263;-74
2022/08/11 04:45:45;;;;;;;5.50;2.70;;;;;;;;;;4904170;29;20203;-74
2022/08/11 05:03:15;;;;;;;4.07;2.50;;;;;;;;;;4903096;29;20227;-74
2022/08/11 05:05:40;;;;;;;7.33;3.73;;;;;;;;;;4898498;29;20188;-75
2022/08/11 05:08:24;;;;;;;5.67;4.20;;;;;;;;;;4900317;29;20279;-74
2022/08/11 05:11:10;;;;;;;3.97;3.57;;;;;;;;;;4896707;29;20293;-74
2022/08/11 05:36:06;;;;;;;3.40;3.10;;;;;;;;;;4905618;29;20261;-75
2022/08/11 05:57:48;;;;;;;3.33;3.13;;;;;;;;;;4900041;29;20197;-75
2022/08/11 06:00:14;;;;;;;3.30;3.00;;;;;;;;;;4898531;29;20196;-75
2022/08/11 06:02:43;;;;;;;9.60;3.43;;;;;;;;;;4897039;29;20183;-75
2022/08/11 06:05:09;;;;;;;5.90;3.13;;;;;;;;;;4885162;29;20194;-75
2022/08/11 06:07:34;;;;;;;4.17;2.90;;;;;;;;;;4887115;29;20450;-74
2022/08/11 06:10:00;;;;;;;3.40;2.63;;;;;;;;;;4895619;29;20214;-75
2022/08/11 06:12:29;;;;;;;6.17;3.43;;;;;;;;;;4885639;29;20492;-75
2022/08/11 06:14:57;;;;;;;3.53;3.23;;;;;;;;;;4889261;29;20239;-75
2022/08/11 06:17:23;;;;;;;3.37;3.00;;;;;;;;;;4914355;29;20189;-75
2022/08/11 06:19:51;;;;;;;3.77;2.83;;;;;;;;;;4895072;29;20181;-75
2022/08/11 06:22:19;;;;;;;4.93;3.47;;;;;;;;;;4886209;29;20197;-75
2022/08/11 06:24:50;;;;;;;3.03;2.83;;;;;;;;;;4895756;29;20186;-76
2022/08/11 06:27:20;;;;;;;3.80;3.07;;;;;;;;;;4917465;29;20186;-74
2022/08/11 06:29:47;;;;;;;4.17;3.20;;;;;;;;;;4882681;29;20202;-76
2022/08/11 06:32:13;;;;;;;2.97;2.77;;;;;;;;;;4889737;29;20381;-74
2022/08/11 06:34:39;;;;;;;4.50;3.00;;;;;;;;;;4911484;29;20713;-74
2022/08/11 06:37:08;;;;;;;3.00;2.70;;;;;;;;;;4894125;29;20176;-75
2022/08/11 06:39:48;;;;;;;3.07;2.87;;;;;;;;;;4907764;29;20174;-76
2022/08/11 06:42:23;;;;;;;10.93;4.03;;;;;;;;;;4904201;29;20693;-75
2022/08/11 06:45:00;;;;;;;3.33;3.03;;;;;;;;;;4887611;29;20360;-74
2022/08/11 06:47:25;;;;;;;3.47;2.80;;;;;;;;;;4887462;29;20184;-76
2022/08/11 06:52:45;;;;;;;3.47;3.10;;;;;;;;;;4901311;29;20264;-78
2022/08/11 07:01:10;;;;;;;3.00;2.80;;;;;;;;;;4897485;29;20228;-76
2022/08/11 07:03:37;;;;;;;3.27;2.97;;;;;;;;;;4879132;29;20239;-76
2022/08/11 07:06:27;;;;;;;9.03;4.47;;;;;;;;;;4901107;29;20184;-74
2022/08/11 10:58:48;;;;;;;3.67;2.60;;;;;;;;;;4919248;29;20229;-80
2022/08/11 11:01:15;;;;;;;4.00;2.92;;;;;;;;;;4922089;29;20189;-81
2022/08/11 11:03:40;;;;;;;5.55;2.70;;;;;;;;;;4920299;29;20187;-81
2022/08/11 11:06:14;;;;;;;4.15;2.67;;;;;;;;;;4918775;29;20196;-79
2022/08/11 11:08:51;;;;;;;3.55;2.72;;;;;;;;;;4906922;29;20184;-80
2022/08/11 11:11:17;;;;;;;3.25;2.70;;;;;;;;;;4919721;29;20186;-81
2022/08/11 11:19:17;;;;;;;6.97;2.92;;;;;;;;;;4922227;29;20550;-81
2022/08/11 11:21:44;;;;;;;3.00;2.10;;;;;;;;;;4905204;29;20178;-79
2022/08/11 11:24:32;;;;;;;3.78;2.60;;;;;;;;;;4918211;29;20190;-80
2022/08/11 11:27:13;;;;;;;4.57;2.28;;;;;;;;;;4901788;29;20205;-82
2022/08/11 11:29:57;;;;;;;4.65;2.35;;;;;;;;;;4896324;29;20320;-81
2022/08/11 11:32:26;;;;;;;3.33;2.15;;;;;;;;;;4900102;29;20239;-79
2022/08/11 11:35:14;;;;;;;2.80;2.45;;;;;;;;;;4902408;29;20316;-81
2022/08/11 11:37:40;;;;;;;4.85;2.90;;;;;;;;;;4903361;29;20189;-79
2022/08/11 11:40:09;;;;;;;3.35;2.53;;;;;;;;;;4919567;29;20186;-79
2022/08/11 11:42:34;;;;;;;2.50;2.30;;;;;;;;;;4917682;29;20273;-80
2022/08/11 11:45:01;;;;;;;2.88;2.63;;;;;;;;;;4903257;29;20245;-79
2022/08/11 11:47:26;;;;;;;2.60;2.40;;;;;;;;;;4904668;29;20178;-80
2022/08/11 11:49:53;;;;;;;2.58;2.38;;;;;;;;;;4911723;29;20494;-79
2022/08/11 11:52:19;;;;;;;9.02;2.58;;;;;;;;;;4921002;28;20303;-81
2022/08/11 11:54:45;;;;;;;2.88;2.40;;;;;;;;;;4918916;29;20516;-79
2022/08/11 12:02:39;;;;;;;3.33;2.70;;;;;;;;;;4935327;28;20293;-79
2022/08/11 12:05:05;;;;;;;3.90;2.80;;;;;;;;;;4917221;29;20210;-80
2022/08/11 12:10:15;;;;;;;2.70;2.50;;;;;;;;;;4937129;28;20212;-80
2022/08/11 12:15:25;;;;;;;2.92;2.72;;;;;;;;;;4934442;28;20224;-79
2022/08/11 12:17:50;;;;;;;3.58;2.38;;;;;;;;;;4924933;28;20177;-81
2022/08/11 12:20:18;;;;;;;4.15;3.28;;;;;;;;;;4920146;28;20195;-81
2022/08/11 12:28:11;;;;;;;3.95;2.50;;;;;;;;;;4937187;28;20423;-81
2022/08/11 12:30:39;;;;;;;2.85;2.47;;;;;;;;;;4921810;29;20184;-81
2022/08/11 12:33:05;;;;;;;2.90;2.70;;;;;;;;;;4932748;28;20209;-82
2022/08/11 12:35:30;;;;;;;2.97;2.67;;;;;;;;;;4943310;28;20406;-80
2022/08/11 12:38:02;;;;;;;4.25;2.45;;;;;;;;;;4914821;29;20177;-80
2022/08/11 12:46:02;;;;;;;2.45;2.25;;;;;;;;;;4939957;28;20263;-80
2022/08/11 12:54:24;;;;;;;2.60;2.40;;;;;;;;;;4934365;28;20244;-81
2022/08/11 13:05:07;;;;;;;5.07;2.50;;;;;;;;;;4933031;28;20244;-80
2022/08/11 13:07:33;;;;;;;2.95;2.70;;;;;;;;;;4922637;28;20185;-80
2022/08/11 13:10:00;;;;;;;2.50;2.30;;;;;;;;;;4912837;29;20234;-79
2022/08/11 13:15:12;;;;;;;3.92;2.30;;;;;;;;;;4934776;28;20472;-81
2022/08/11 13:17:38;;;;;;;2.50;2.30;;;;;;;;;;4920612;29;20335;-82
2022/08/11 13:20:05;;;;;;;2.67;2.47;;;;;;;;;;4920908;29;20467;-80
2022/08/11 13:22:30;;;;;;;2.55;2.35;;;;;;;;;;4913324;29;20407;-79
2022/08/11 13:24:56;;;;;;;3.72;2.85;;;;;;;;;;4919485;28;20178;-81
2022/08/11 13:27:22;;;;;;;4.78;2.38;;;;;;;;;;4930083;29;20360;-80
2022/08/11 13:29:48;;;;;;;2.38;2.20;;;;;;;;;;4921556;29;20181;-80
2022/08/11 13:32:14;;;;;;;3.55;3.00;;;;;;;;;;4924553;28;20201;-80
2022/08/11 13:34:41;;;;;;;4.65;3.10;;;;;;;;;;4925691;28;20205;-82
2022/08/11 13:37:06;;;;;;;2.70;2.22;;;;;;;;;;4915620;29;20222;-80
2022/08/11 13:39:32;;;;;;;5.35;2.60;;;;;;;;;;4926460;29;20177;-81
2022/08/11 13:41:58;;;;;;;3.10;2.40;;;;;;;;;;4927397;28;20179;-79
2022/08/11 13:44:28;;;;;;;4.22;2.65;;;;;;;;;;4923935;28;20194;-80
2022/08/11 13:46:56;;;;;;;1.92;1.83;;;;;;;;;;4935044;28;20190;-81
2022/08/11 13:49:22;;;;;;;4.88;2.53;;;;;;;;;;4914626;28;20527;-79
2022/08/11 13:51:47;;;;;;;2.50;2.13;;;;;;;;;;4914098;28;20230;-79
2022/08/11 13:54:19;;;;;;;3.00;2.42;;;;;;;;;;4908247;29;20209;-81
2022/08/11 13:56:46;;;;;;;2.60;2.40;;;;;;;;;;4909809;29;20277;-80
2022/08/11 13:59:12;;;;;;;3.00;2.25;;;;;;;;;;4915531;29;20193;-79
2022/08/11 14:01:38;;;;;;;2.67;2.47;;;;;;;;;;4911443;29;20182;-79
2022/08/11 14:04:17;;;;;;;2.67;2.47;;;;;;;;;;4916467;29;20215;-81
2022/08/11 14:06:47;;;;;;;2.88;2.15;;;;;;;;;;4924110;29;20288;-82
2022/08/11 14:09:13;;;;;;;4.05;2.42;;;;;;;;;;4912650;29;20175;-80
2022/08/11 14:14:25;;;;;;;3.85;2.67;;;;;;;;;;4917250;29;20262;-83
2022/08/11 14:16:52;;;;;;;2.50;2.33;;;;;;;;;;4913622;29;20238;-81
2022/08/11 14:19:20;;;;;;;2.72;2.45;;;;;;;;;;4917537;29;20241;-79
2022/08/11 14:24:30;;;;;;;2.67;2.47;;;;;;;;;;4910160;29;20217;-79
2022/08/11 14:26:55;;;;;;;2.60;2.33;;;;;;;;;;4916148;29;20211;-79
2022/08/11 14:29:23;;;;;;;2.55;2.35;;;;;;;;;;4911964;29;20183;-79
2022/08/11 14:31:50;;;;;;;3.25;2.15;;;;;;;;;;4914878;29;20524;-81
2022/08/11 14:34:17;;;;;;;2.50;2.30;;;;;;;;;;4912886;29;20206;-79
2022/08/11 14:36:47;;;;;;;6.68;2.65;;;;;;;;;;4908888;29;20206;-82
2022/08/11 14:39:16;;;;;;;3.90;2.60;;;;;;;;;;4908680;29;20386;-80
2022/08/11 14:47:14;;;;;;;5.55;2.83;;;;;;;;;;4920973;29;20423;-80
2022/08/11 14:49:40;;;;;;;2.20;2.10;;;;;;;;;;4919037;29;20588;-81
2022/08/11 14:52:15;;;;;;;2.85;2.65;;;;;;;;;;4913617;29;20318;-81
2022/08/11 14:57:30;;;;;;;3.92;2.03;;;;;;;;;;4925698;29;20180;-81
2022/08/11 14:59:58;;;;;;;3.88;2.45;;;;;;;;;;4922214;29;20179;-80
2022/08/11 15:05:07;;;;;;;2.90;2.47;;;;;;;;;;4909594;29;20253;-79
2022/08/11 15:07:33;;;;;;;3.72;2.45;;;;;;;;;;4911902;29;22525;-81
2022/08/11 15:10:00;;;;;;;3.28;2.08;;;;;;;;;;4914470;29;20187;-81
2022/08/11 15:12:26;;;;;;;2.85;2.50;;;;;;;;;;4920195;29;20186;-80
2022/08/11 15:17:37;;;;;;;3.17;2.47;;;;;;;;;;4917866;29;20196;-79
2022/08/11 15:25:33;;;;;;;2.70;2.38;;;;;;;;;;4913614;29;20571;-79
2022/08/11 15:39:07;;;;;;;3.67;2.70;;;;;;;;;;4908049;29;20189;-80
2022/08/11 15:47:17;;;;;;;2.90;2.03;;;;;;;;;;4908885;29;20201;-81
2022/08/11 15:49:43;;;;;;;2.95;2.30;;;;;;;;;;4926416;29;20202;-80
2022/08/11 15:52:11;;;;;;;2.42;2.15;;;;;;;;;;4934956;28;20321;-80
2022/08/11 15:54:41;;;;;;;5.03;2.28;;;;;;;;;;4923452;28;20284;-81
2022/08/11 15:57:07;;;;;;;2.22;2.03;;;;;;;;;;4923283;28;20190;-78
2022/08/11 16:05:05;;;;;;;2.20;2.00;;;;;;;;;;4933879;29;20336;-79
2022/08/11 16:07:34;;;;;;;3.58;2.35;;;;;;;;;;4930138;28;20195;-81
2022/08/11 16:10:04;;;;;;;3.72;1.95;;;;;;;;;;4916126;28;20683;-80
2022/08/11 16:12:31;;;;;;;2.35;2.03;;;;;;;;;;4917784;28;20177;-81
2022/08/11 16:17:44;;;;;;;4.60;2.28;;;;;;;;;;4942182;28;20196;-80
2022/08/11 16:20:11;;;;;;;2.80;2.60;;;;;;;;;;4933177;28;20273;-80
2022/08/11 16:22:42;;;;;;;2.70;2.17;;;;;;;;;;4935851;28;20177;-80
2022/08/11 16:25:13;;;;;;;2.97;1.95;;;;;;;;;;4921068;28;20189;-79
2022/08/11 16:27:40;;;;;;;4.50;2.03;;;;;;;;;;4917534;29;20178;-81
2022/08/11 16:30:06;;;;;;;3.05;2.10;;;;;;;;;;4917488;29;20197;-81
2022/08/11 16:32:32;;;;;;;2.08;1.88;;;;;;;;;;4919829;29;20281;-80
2022/08/11 16:40:31;;;;;;;17.27;3.08;;;;;;;;;;4933711;28;20408;-78
2022/08/11 16:48:27;;;;;;;2.80;2.33;;;;;;;;;;4932145;28;20200;-80
2022/08/11 16:50:53;;;;;;;2.70;2.15;;;;;;;;;;4941245;28;20366;-82
2022/08/11 16:53:18;;;;;;;2.85;2.60;;;;;;;;;;4917798;29;20194;-80
2022/08/11 16:55:45;;;;;;;3.05;2.25;;;;;;;;;;4916026;29;20202;-78
2022/08/11 17:00:57;;;;;;;6.03;2.30;;;;;;;;;;4939129;28;20193;-81
2022/08/11 17:14:39;;;;;;;2.72;2.10;;;;;;;;;;4940811;28;20388;-76
2022/08/11 17:17:06;;;;;;;3.72;2.40;;;;;;;;;;4927607;29;20179;-75
2022/08/11 17:19:32;;;;;;;4.25;2.17;;;;;;;;;;4924822;29;20498;-74
2022/08/11 17:24:45;;;;;;;2.35;2.15;;;;;;;;;;4937368;28;20220;-74
2022/08/11 17:30:08;;;;;;;4.45;2.40;;;;;;;;;;4981197;23;20314;-94
2022/08/11 17:35:29;;;;;;;2.50;2.30;;;;;;;;;;4955835;29;20205;-93
2022/08/11 17:38:02;;;;;;;3.70;1.92;;;;;;;;;;4943257;29;20284;-93
2022/08/11 17:49:12;;;;;;;4.97;2.25;;;;;;;;;;4949740;29;20185;-96
2022/08/11 17:59:59;;;;;;;3.67;2.20;;;;;;;;;;4954556;29;20206;-92
2022/08/11 18:05:14;;;;;;;3.72;2.60;;;;;;;;;;4960516;28;20256;-94
